Time;durP1;ratioP1;P1;durP2;ratioP2;P2;SDS_P1;SDS_P2;PMS_P1;PMS_P2;Temp;Humidity;BMP_temperature;BMP_pressure;BME280_temperature;BME280_humidity;BME280_pressure;Samples;Min_cycle;Max_cycle;Signal;HPM_P1;HPM_P2
2023/05/02 00:01:45;;;;;;;19.13;5.28;;;10.30;99.90;;;;;;4954982;28;20150;-83
2023/05/02 00:04:13;;;;;;;18.67;5.75;;;10.30;99.90;;;;;;4964523;28;20090;-84
2023/05/02 00:06:41;;;;;;;17.70;5.95;;;10.20;99.90;;;;;;4956884;28;20490;-85
2023/05/02 00:09:07;;;;;;;19.88;5.43;;;10.20;99.90;;;;;;4944876;28;20555;-84
2023/05/02 00:11:33;;;;;;;12.30;4.88;;;10.20;99.90;;;;;;4958521;28;20046;-82
2023/05/02 00:13:59;;;;;;;14.02;4.63;;;10.10;99.90;;;;;;4959060;28;20112;-85
2023/05/02 00:16:26;;;;;;;12.85;4.35;;;12.50;99.90;;;;;;4947215;28;20542;-84
2023/05/02 00:19:06;;;;;;;11.45;3.67;;;12.30;99.90;;;;;;4977525;28;20050;-83
2023/05/02 00:21:35;;;;;;;11.95;3.70;;;9.10;99.90;;;;;;4955357;28;20137;-84
2023/05/02 00:24:04;;;;;;;13.93;3.70;;;12.10;99.90;;;;;;4944476;28;20094;-85
2023/05/02 00:26:29;;;;;;;15.27;3.42;;;10.10;99.90;;;;;;4951911;28;20042;-84
2023/05/02 00:28:56;;;;;;;12.80;4.13;;;12.20;99.90;;;;;;4966942;28;20195;-83
2023/05/02 00:31:22;;;;;;;9.25;3.13;;;11.00;99.90;;;;;;4979375;28;20069;-83
2023/05/02 00:33:47;;;;;;;13.15;3.92;;;12.70;99.90;;;;;;4957912;28;20059;-84
2023/05/02 00:36:14;;;;;;;12.07;2.83;;;12.00;99.90;;;;;;4971001;28;20130;-85
2023/05/02 00:38:40;;;;;;;14.15;3.05;;;10.50;99.90;;;;;;4958939;28;20102;-85
2023/05/02 00:41:05;;;;;;;14.57;2.80;;;11.80;99.90;;;;;;4975984;28;20051;-86
2023/05/02 00:43:31;;;;;;;9.70;2.60;;;10.80;99.90;;;;;;4991831;28;20054;-85
2023/05/02 00:45:57;;;;;;;13.45;2.08;;;11.00;99.90;;;;;;4983737;28;20533;-85
2023/05/02 00:48:25;;;;;;;9.65;2.63;;;12.40;99.90;;;;;;4980715;28;20054;-83
2023/05/02 00:50:51;;;;;;;11.10;2.78;;;12.00;99.90;;;;;;4980644;28;20054;-83
2023/05/02 00:53:17;;;;;;;10.27;2.17;;;10.10;99.90;;;;;;4966694;28;20063;-84
2023/05/02 00:55:43;;;;;;;9.73;2.20;;;11.10;99.90;;;;;;4944038;28;20130;-83
2023/05/02 00:58:15;;;;;;;9.23;2.13;;;10.90;99.90;;;;;;4960327;28;20182;-83
2023/05/02 01:01:05;;;;;;;10.52;2.15;;;12.20;99.90;;;;;;4962129;28;20073;-84
2023/05/02 01:03:43;;;;;;;8.95;2.28;;;10.00;99.90;;;;;;4955731;28;20063;-84
2023/05/02 01:06:23;;;;;;;10.38;2.58;;;10.00;99.90;;;;;;4959233;28;20047;-84
2023/05/02 01:08:56;;;;;;;11.13;2.83;;;10.00;99.90;;;;;;4961574;28;20057;-82
2023/05/02 01:11:48;;;;;;;11.63;2.10;;;10.00;99.90;;;;;;4965968;28;20080;-82
2023/05/02 01:14:14;;;;;;;18.05;3.25;;;9.90;99.90;;;;;;4946191;28;20085;-82
2023/05/02 01:16:44;;;;;;;10.95;2.38;;;10.30;99.90;;;;;;4953069;28;20086;-83
2023/05/02 01:19:28;;;;;;;10.05;2.63;;;12.30;99.90;;;;;;4954483;28;20672;-83
2023/05/02 01:21:56;;;;;;;8.70;1.60;;;11.40;99.90;;;;;;4979419;28;20050;-83
2023/05/02 01:24:29;;;;;;;8.32;1.88;;;11.20;99.90;;;;;;4979398;28;20165;-83
2023/05/02 01:27:10;;;;;;;12.07;3.17;;;12.20;99.90;;;;;;4978437;28;20127;-81
2023/05/02 01:29:37;;;;;;;11.10;3.53;;;11.80;99.90;;;;;;4990662;28;20156;-84
2023/05/02 01:32:05;;;;;;;11.73;4.05;;;11.80;99.90;;;;;;4974986;28;20074;-85
2023/05/02 01:34:32;;;;;;;10.30;3.40;;;12.00;99.90;;;;;;4972949;28;20082;-83
2023/05/02 01:37:00;;;;;;;15.00;3.58;;;9.60;99.90;;;;;;4983209;28;20487;-82
2023/05/02 01:39:26;;;;;;;13.70;3.85;;;11.80;99.90;;;;;;4942654;28;20153;-83
2023/05/02 01:41:55;;;;;;;14.90;3.58;;;11.00;99.90;;;;;;4944220;28;20112;-83
2023/05/02 01:44:23;;;;;;;9.63;3.42;;;11.90;99.90;;;;;;4961512;28;20059;-82
2023/05/02 01:46:54;;;;;;;13.90;3.67;;;9.60;99.90;;;;;;4974195;28;20051;-82
2023/05/02 01:49:22;;;;;;;16.25;4.03;;;9.40;99.90;;;;;;4979549;28;20142;-83
2023/05/02 01:51:49;;;;;;;17.13;3.53;;;12.00;99.90;;;;;;4953794;28;20050;-84
2023/05/02 01:54:17;;;;;;;22.55;4.88;;;9.30;99.90;;;;;;4955546;28;20063;-84
2023/05/02 01:56:44;;;;;;;15.95;3.00;;;10.70;99.90;;;;;;4940632;28;20039;-81
2023/05/02 01:59:22;;;;;;;20.00;3.65;;;11.50;99.90;;;;;;4937767;28;20055;-83
2023/05/02 02:01:50;;;;;;;16.02;3.30;;;9.20;99.90;;;;;;4957864;28;20514;-83
2023/05/02 02:04:18;;;;;;;15.82;3.38;;;9.20;99.90;;;;;;4953728;28;20062;-86
2023/05/02 02:06:49;;;;;;;19.17;3.83;;;11.00;99.90;;;;;;4966980;28;20046;-85
2023/05/02 02:09:15;;;;;;;18.92;3.40;;;9.10;99.90;;;;;;4954986;28;20047;-84
2023/05/02 02:11:56;;;;;;;13.93;3.60;;;9.80;99.90;;;;;;4970349;28;20046;-82
2023/05/02 02:14:25;;;;;;;18.48;4.35;;;11.60;99.90;;;;;;4957447;28;20410;-82
2023/05/02 02:16:54;;;;;;;24.10;3.78;;;9.10;99.90;;;;;;4948191;28;20047;-82
2023/05/02 02:19:21;;;;;;;17.85;4.32;;;9.20;99.90;;;;;;4959037;28;20653;-82
2023/05/02 02:21:48;;;;;;;23.65;4.65;;;9.80;99.90;;;;;;4956899;28;20691;-83
2023/05/02 02:24:19;;;;;;;23.17;4.55;;;11.30;99.90;;;;;;4953649;28;20114;-82
2023/05/02 02:26:45;;;;;;;24.88;5.07;;;8.70;99.90;;;;;;4969607;28;20043;-83
2023/05/02 02:29:11;;;;;;;31.70;6.07;;;11.20;99.90;;;;;;4946636;28;20051;-82
2023/05/02 02:31:38;;;;;;;24.85;4.93;;;8.80;99.90;;;;;;4958242;28;20055;-81
2023/05/02 02:34:05;;;;;;;28.00;4.82;;;9.60;99.90;;;;;;4980915;28;20065;-83
2023/05/02 02:36:45;;;;;;;25.23;4.68;;;11.30;99.90;;;;;;4970679;28;20362;-83
2023/05/02 02:39:24;;;;;;;24.38;4.88;;;8.60;99.90;;;;;;4960315;28;20102;-83
2023/05/02 02:42:04;;;;;;;28.13;4.57;;;8.60;99.90;;;;;;4984727;28;20082;-83
2023/05/02 02:45:00;;;;;;;20.00;4.65;;;11.00;99.90;;;;;;4963490;28;20149;-83
2023/05/02 02:47:53;;;;;;;26.92;5.10;;;8.50;99.90;;;;;;4965003;28;20091;-83
2023/05/02 02:50:26;;;;;;;24.92;5.22;;;8.60;99.90;;;;;;4972831;28;20503;-82
2023/05/02 02:53:03;;;;;;;24.58;4.78;;;10.90;99.90;;;;;;4980385;28;20039;-84
2023/05/02 02:55:44;;;;;;;18.85;4.57;;;8.40;99.90;;;;;;4977779;28;20051;-83
2023/05/02 02:58:41;;;;;;;24.85;4.82;;;8.40;99.90;;;;;;4972603;28;20068;-82
2023/05/02 03:01:13;;;;;;;23.42;4.10;;;8.40;99.90;;;;;;4959331;28;20109;-83
2023/05/02 03:03:43;;;;;;;16.48;3.47;;;8.60;99.90;;;;;;4966594;28;20057;-83
2023/05/02 03:06:09;;;;;;;19.55;3.78;;;8.30;99.90;;;;;;4987498;28;20059;-84
2023/05/02 03:08:42;;;;;;;18.50;3.80;;;8.20;99.90;;;;;;4983571;28;20038;-83
2023/05/02 03:11:08;;;;;;;12.32;3.53;;;10.00;99.90;;;;;;4952052;28;20061;-84
2023/05/02 03:13:36;;;;;;;19.60;3.13;;;8.00;99.90;;;;;;4979696;28;20451;-83
2023/05/02 03:16:34;;;;;;;19.20;3.75;;;10.30;99.90;;;;;;4973998;28;20051;-82
2023/05/02 03:18:59;;;;;;;;;;;8.10;99.90;;;;;;4957138;28;20054;-83
2023/05/02 03:21:25;;;;;;;18.23;2.85;;;8.60;99.90;;;;;;4945976;28;20005;-83
2023/05/02 03:23:51;;;;;;;14.55;3.70;;;8.00;99.90;;;;;;4963511;28;20072;-83
2023/05/02 03:26:17;;;;;;;11.30;3.22;;;9.90;99.90;;;;;;4964997;28;20051;-83
2023/05/02 03:28:46;;;;;;;19.42;3.00;;;7.90;99.90;;;;;;4975007;28;20138;-83
2023/05/02 03:31:15;;;;;;;23.98;3.00;;;7.90;99.90;;;;;;4943444;28;20067;-83
2023/05/02 03:33:45;;;;;;;15.07;3.20;;;10.40;99.90;;;;;;4973090;28;20140;-83
2023/05/02 03:36:11;;;;;;;13.52;2.85;;;7.90;99.90;;;;;;4958306;28;20490;-83
2023/05/02 03:38:37;;;;;;;16.45;2.83;;;7.80;99.90;;;;;;4928268;28;20133;-83
2023/05/02 03:41:04;;;;;;;14.68;2.20;;;6.70;99.90;;;;;;4956095;28;20054;-82
2023/05/02 03:43:30;;;;;;;17.73;2.88;;;7.80;99.90;;;;;;4943568;28;20061;-83
2023/05/02 03:45:56;;;;;;;13.80;2.47;;;7.70;99.90;;;;;;4948282;28;20194;-84
2023/05/02 03:48:22;;;;;;;16.77;2.50;;;7.70;99.90;;;;;;4955779;28;20062;-84
2023/05/02 03:50:50;;;;;;;14.88;2.17;;;10.10;99.90;;;;;;4961834;28;20634;-83
2023/05/02 03:53:16;;;;;;;12.93;2.58;;;7.70;99.90;;;;;;4960028;28;20144;-84
2023/05/02 03:55:45;;;;;;;14.90;2.22;;;10.30;99.90;;;;;;4932063;28;20050;-83
2023/05/02 03:58:10;;;;;;;18.77;2.50;;;10.20;99.90;;;;;;4951913;28;20523;-85
2023/05/02 04:00:37;;;;;;;8.57;2.28;;;7.60;99.90;;;;;;4941968;28;20108;-83
2023/05/02 04:03:03;;;;;;;13.98;1.83;;;7.30;99.90;;;;;;4941553;28;20059;-85
2023/05/02 04:05:29;;;;;;;9.40;1.85;;;9.40;99.90;;;;;;4940297;28;20105;-85
2023/05/02 04:07:55;;;;;;;8.18;2.03;;;7.20;99.90;;;;;;4956857;28;20047;-83
2023/05/02 04:10:21;;;;;;;8.75;2.03;;;7.50;99.90;;;;;;4927172;28;20055;-85
2023/05/02 04:12:47;;;;;;;11.80;2.60;;;7.50;99.90;;;;;;4941464;28;20046;-84
2023/05/02 04:15:14;;;;;;;10.15;1.73;;;7.50;99.90;;;;;;4931435;28;20055;-85
2023/05/02 04:17:40;;;;;;;10.63;2.17;;;7.60;99.90;;;;;;4945438;28;20546;-84
2023/05/02 04:20:07;;;;;;;12.82;2.05;;;9.60;99.90;;;;;;4956137;28;20063;-84
2023/05/02 04:22:33;;;;;;;7.72;1.45;;;7.60;99.90;;;;;;4941672;28;20051;-84
2023/05/02 04:25:04;;;;;;;11.30;1.48;;;8.80;99.90;;;;;;4942587;28;20057;-84
2023/05/02 04:27:29;;;;;;;7.97;1.88;;;7.40;99.90;;;;;;4962536;28;20114;-83
2023/05/02 04:29:59;;;;;;;12.98;2.05;;;8.80;99.90;;;;;;4965306;28;20064;-83
2023/05/02 04:32:25;;;;;;;13.32;1.40;;;7.40;99.90;;;;;;4947195;28;20402;-80
2023/05/02 04:34:52;;;;;;;9.55;1.52;;;7.40;99.90;;;;;;4944848;28;20538;-84
2023/05/02 04:37:18;;;;;;;11.93;1.60;;;7.30;99.90;;;;;;4927803;29;20051;-82
2023/05/02 04:39:49;;;;;;;8.25;1.35;;;7.40;99.90;;;;;;4961798;28;20047;-83
2023/05/02 04:42:15;;;;;;;13.98;4.88;;;7.40;99.90;;;;;;4942710;28;20059;-83
2023/05/02 04:44:41;;;;;;;7.45;2.53;;;9.80;99.90;;;;;;4943404;28;20046;-82
2023/05/02 04:47:07;;;;;;;11.55;2.22;;;7.00;99.90;;;;;;4956011;28;20491;-83
2023/05/02 04:49:32;;;;;;;11.23;1.88;;;9.50;99.90;;;;;;4955894;28;20055;-82
2023/05/02 04:51:58;;;;;;;8.63;1.52;;;9.90;99.90;;;;;;4941304;28;20094;-83
2023/05/02 04:54:24;;;;;;;11.48;1.98;;;7.50;99.90;;;;;;4943563;28;20047;-82
2023/05/02 04:56:49;;;;;;;12.40;2.10;;;7.60;99.90;;;;;;4936562;28;20082;-81
2023/05/02 04:59:15;;;;;;;12.52;2.30;;;9.10;99.90;;;;;;4923095;28;20055;-82
2023/05/02 05:01:42;;;;;;;10.82;2.33;;;7.40;99.90;;;;;;4960868;28;20537;-81
2023/05/02 05:04:07;;;;;;;13.98;1.70;;;7.40;99.90;;;;;;4963467;28;20499;-84
2023/05/02 05:06:33;;;;;;;11.18;2.08;;;9.40;99.90;;;;;;4959771;28;20046;-82
2023/05/02 05:08:58;;;;;;;20.70;2.72;;;7.40;99.90;;;;;;4965213;28;20047;-83
2023/05/02 05:11:26;;;;;;;9.70;2.22;;;7.30;99.90;;;;;;4953306;28;20051;-82
2023/05/02 05:13:51;;;;;;;11.18;2.65;;;9.40;99.90;;;;;;4958464;28;20147;-82
2023/05/02 05:16:17;;;;;;;11.63;2.10;;;8.40;99.90;;;;;;4944724;28;20671;-82
2023/05/02 05:18:43;;;;;;;6.57;1.92;;;7.40;99.90;;;;;;4958802;28;20051;-83
2023/05/02 05:21:09;;;;;;;10.90;1.77;;;7.40;99.90;;;;;;4946082;28;20138;-82
2023/05/02 05:23:36;;;;;;;13.75;4.47;;;9.50;99.90;;;;;;4940639;28;20058;-83
2023/05/02 05:26:09;;;;;;;15.75;3.15;;;7.40;99.90;;;;;;4961752;28;20525;-81
2023/05/02 05:28:35;;;;;;;7.65;1.85;;;7.30;99.90;;;;;;4928966;28;20160;-82
2023/05/02 05:31:09;;;;;;;8.77;2.00;;;7.30;99.90;;;;;;4949354;28;20058;-82
2023/05/02 05:33:36;;;;;;;19.23;2.78;;;7.30;99.90;;;;;;4961681;28;20106;-82
2023/05/02 05:36:13;;;;;;;9.52;1.95;;;7.30;99.90;;;;;;4934629;28;20050;-83
2023/05/02 05:38:46;;;;;;;5.93;2.13;;;7.30;99.90;;;;;;4966862;28;20129;-83
2023/05/02 05:41:12;;;;;;;10.68;2.35;;;7.40;99.90;;;;;;4943094;28;20598;-82
2023/05/02 05:43:38;;;;;;;10.48;1.98;;;8.60;99.90;;;;;;4942690;28;20122;-83
2023/05/02 05:46:04;;;;;;;11.27;2.75;;;10.20;99.90;;;;;;4945884;28;20492;-82
2023/05/02 05:48:29;;;;;;;9.80;1.73;;;7.40;99.90;;;;;;4958998;28;20491;-82
2023/05/02 05:50:55;;;;;;;10.63;3.22;;;7.20;99.90;;;;;;4945869;28;20046;-82
2023/05/02 05:53:22;;;;;;;17.15;7.95;;;7.30;99.90;;;;;;4955129;28;20918;-82
2023/05/02 05:55:48;;;;;;;9.52;1.80;;;7.30;99.90;;;;;;4973651;28;20049;-82
2023/05/02 05:58:14;;;;;;;9.68;1.92;;;5.00;99.90;;;;;;4961727;28;20051;-83
2023/05/02 06:00:41;;;;;;;8.13;1.75;;;7.40;99.90;;;;;;4960954;28;20403;-82
2023/05/02 06:03:06;;;;;;;10.25;2.15;;;9.10;99.90;;;;;;4964099;28;20414;-81
2023/05/02 06:05:32;;;;;;;10.25;2.35;;;6.80;99.90;;;;;;4958507;28;20034;-83
2023/05/02 06:07:58;;;;;;;8.38;2.13;;;6.00;99.90;;;;;;4969064;28;20094;-82
2023/05/02 06:10:24;;;;;;;8.07;1.83;;;7.30;99.90;;;;;;4968199;28;20105;-82
2023/05/02 06:12:50;;;;;;;8.63;1.58;;;7.30;99.90;;;;;;4973767;28;20532;-81
2023/05/02 06:15:16;;;;;;;9.48;2.35;;;7.40;99.90;;;;;;4969957;28;20051;-83
2023/05/02 06:17:42;;;;;;;8.10;2.30;;;7.40;99.90;;;;;;4271333;28;10000736;-83
2023/05/02 06:20:08;;;;;;;9.52;2.25;;;7.00;99.90;;;;;;4955186;28;20051;-83
2023/05/02 06:22:34;;;;;;;12.05;1.98;;;7.40;99.90;;;;;;4970283;28;20047;-84
2023/05/02 06:25:00;;;;;;;11.50;1.90;;;7.20;99.90;;;;;;4961801;28;20047;-83
2023/05/02 06:27:26;;;;;;;14.88;2.70;;;7.40;99.90;;;;;;4948111;28;20051;-83
2023/05/02 06:29:52;;;;;;;12.50;1.90;;;7.10;99.90;;;;;;4971589;28;20082;-84
2023/05/02 06:32:18;;;;;;;9.05;2.28;;;7.30;99.90;;;;;;4971135;28;20492;-82
2023/05/02 06:34:44;;;;;;;14.13;2.78;;;9.50;99.90;;;;;;4975807;28;20046;-82
2023/05/02 06:37:10;;;;;;;12.73;2.30;;;8.30;99.90;;;;;;4948817;28;20055;-84
2023/05/02 06:39:36;;;;;;;13.20;2.55;;;10.20;99.90;;;;;;4957685;28;20158;-82
2023/05/02 06:42:01;;;;;;;9.35;2.53;;;9.60;99.90;;;;;;4962257;28;20129;-84
2023/05/02 06:44:27;;;;;;;8.25;2.83;;;6.00;99.90;;;;;;4952946;28;20063;-82
2023/05/02 06:46:54;;;;;;;11.43;2.97;;;7.50;99.90;;;;;;4953027;28;20078;-82
2023/05/02 06:49:23;;;;;;;11.70;2.72;;;8.40;99.90;;;;;;4942421;28;20043;-83
2023/05/02 06:51:48;;;;;;;12.15;2.45;;;7.60;99.90;;;;;;4942251;28;20063;-87
2023/05/02 06:54:17;;;;;;;17.25;3.15;;;7.60;99.90;;;;;;4961682;28;20047;-78
2023/05/02 06:56:43;;;;;;;6.80;2.22;;;6.60;99.90;;;;;;4969005;28;20061;-77
2023/05/02 06:59:09;;;;;;;9.88;2.20;;;10.10;99.90;;;;;;4965692;28;20051;-82
2023/05/02 07:01:34;;;;;;;9.57;2.45;;;9.60;99.90;;;;;;4977891;28;20082;-83
2023/05/02 07:04:04;;;;;;;7.65;1.90;;;9.50;99.90;;;;;;4980041;28;20056;-83
2023/05/02 07:06:31;;;;;;;7.75;1.92;;;10.00;99.90;;;;;;4961282;28;20168;-83
2023/05/02 07:08:57;;;;;;;5.10;1.35;;;9.40;99.90;;;;;;4982980;28;20050;-83
2023/05/02 07:11:22;;;;;;;9.13;2.47;;;7.30;99.90;;;;;;4972315;28;20051;-81
2023/05/02 07:13:48;;;;;;;8.57;2.20;;;;;;;;;;4962519;28;20047;-82
2023/05/02 07:16:14;;;;;;;5.78;1.50;;;7.70;99.90;;;;;;4960328;28;20086;-82
2023/05/02 07:18:41;;;;;;;11.85;2.10;;;7.80;99.90;;;;;;4961818;28;20101;-82
2023/05/02 07:21:07;;;;;;;6.00;2.20;;;9.50;99.90;;;;;;4975218;28;20069;-82
2023/05/02 07:23:33;;;;;;;5.63;1.77;;;10.00;99.90;;;;;;4971350;28;20117;-82
2023/05/02 07:25:58;;;;;;;7.40;2.22;;;7.80;99.90;;;;;;4979844;28;20050;-82
2023/05/02 07:28:24;;;;;;;10.27;1.88;;;8.40;99.90;;;;;;4963165;28;20097;-83
2023/05/02 07:30:50;;;;;;;9.82;2.22;;;10.00;99.90;;;;;;4964419;28;20487;-82
2023/05/02 07:33:15;;;;;;;10.68;2.85;;;7.90;99.90;;;;;;4974485;28;20073;-83
2023/05/02 07:35:41;;;;;;;9.77;2.05;;;9.90;99.90;;;;;;4960156;28;20074;-84
2023/05/02 07:38:07;;;;;;;9.63;2.45;;;7.90;99.90;;;;;;4971467;28;20133;-85
2023/05/02 07:40:33;;;;;;;5.82;2.17;;;10.30;99.90;;;;;;4984277;28;20127;-80
2023/05/02 07:43:00;;;;;;;8.18;1.52;;;10.60;99.90;;;;;;4975112;28;20050;-81
2023/05/02 07:45:26;;;;;;;8.70;2.22;;;10.20;99.90;;;;;;4948157;28;20055;-82
2023/05/02 07:47:52;;;;;;;12.18;2.53;;;9.90;99.90;;;;;;4966313;28;20126;-80
2023/05/02 07:50:18;;;;;;;12.57;2.50;;;;;;;;;;4950931;28;20098;-81
2023/05/02 07:52:43;;;;;;;9.60;2.10;;;8.10;99.90;;;;;;4959563;28;20138;-80
2023/05/02 07:55:09;;;;;;;6.50;1.85;;;9.80;99.90;;;;;;4982679;28;20417;-81
2023/05/02 07:57:35;;;;;;;7.40;1.75;;;9.50;99.90;;;;;;4985558;28;20050;-81
2023/05/02 08:00:00;;;;;;;5.15;1.60;;;10.80;99.90;;;;;;4973684;28;20486;-82
2023/05/02 08:02:26;;;;;;;12.10;1.98;;;8.30;99.90;;;;;;4974402;28;20051;-81
2023/05/02 08:04:52;;;;;;;5.93;1.65;;;9.80;99.90;;;;;;4962217;28;20130;-82
2023/05/02 08:07:20;;;;;;;11.05;2.83;;;8.00;99.90;;;;;;4978900;28;20409;-81
2023/05/02 08:09:47;;;;;;;12.02;2.65;;;9.30;99.90;;;;;;4972647;28;20121;-83
2023/05/02 08:12:12;;;;;;;18.17;2.40;;;10.60;99.90;;;;;;4966109;28;20533;-82
2023/05/02 08:14:41;;;;;;;9.35;2.38;;;8.10;99.90;;;;;;4990287;28;20466;-82
2023/05/02 08:17:07;;;;;;;8.00;1.75;;;8.50;99.90;;;;;;4975190;28;20047;-80
2023/05/02 08:19:32;;;;;;;6.13;1.80;;;9.60;99.90;;;;;;4975785;28;20133;-82
2023/05/02 08:21:58;;;;;;;6.28;1.55;;;10.40;99.90;;;;;;4971532;28;20196;-83
2023/05/02 08:24:23;;;;;;;8.40;1.50;;;8.10;99.90;;;;;;4977480;28;20484;-83
2023/05/02 08:26:49;;;;;;;4.93;1.17;;;8.30;99.90;;;;;;4968762;28;20153;-81
2023/05/02 08:29:15;;;;;;;8.30;1.13;;;8.80;99.90;;;;;;4968100;28;20646;-80
2023/05/02 08:31:41;;;;;;;9.90;1.70;;;10.40;99.90;;;;;;4979929;28;20051;-82
2023/05/02 08:34:07;;;;;;;7.43;1.50;;;10.00;99.90;;;;;;4951507;28;20144;-82
2023/05/02 08:36:33;;;;;;;10.63;1.58;;;8.70;99.90;;;;;;4982397;28;20050;-82
2023/05/02 08:38:58;;;;;;;7.28;1.70;;;9.30;99.90;;;;;;4978571;28;20050;-82
2023/05/02 08:41:25;;;;;;;10.73;1.38;;;10.20;99.90;;;;;;4978403;28;20051;-82
2023/05/02 08:43:52;;;;;;;6.72;1.50;;;8.50;99.90;;;;;;4981699;28;20058;-83
2023/05/02 08:46:17;;;;;;;8.73;2.08;;;9.70;99.90;;;;;;4982404;28;20053;-83
2023/05/02 08:48:46;;;;;;;7.00;1.20;;;8.50;99.90;;;;;;4994205;28;20042;-82
2023/05/02 08:51:16;;;;;;;4.00;0.95;;;8.50;99.90;;;;;;4979212;28;20073;-82
2023/05/02 08:53:43;;;;;;;8.07;1.63;;;8.50;99.90;;;;;;4975608;28;20051;-82
2023/05/02 08:56:09;;;;;;;11.80;1.92;;;10.80;99.90;;;;;;4985431;28;20081;-82
2023/05/02 08:58:39;;;;;;;4.88;1.05;;;8.50;99.90;;;;;;4978034;28;20058;-82
2023/05/02 09:01:16;;;;;;;5.60;1.30;;;8.50;99.90;;;;;;4980002;28;20145;-82
2023/05/02 09:03:46;;;;;;;7.80;1.55;;;9.90;99.90;;;;;;4968262;28;20047;-81
2023/05/02 09:06:14;;;;;;;3.13;0.85;;;9.10;99.90;;;;;;4985999;28;20475;-82
2023/05/02 09:08:41;;;;;;;7.60;1.08;;;10.70;99.90;;;;;;4973482;28;20110;-83
2023/05/02 09:11:08;;;;;;;7.88;1.15;;;11.10;99.90;;;;;;4969912;28;20059;-83
2023/05/02 09:13:37;;;;;;;9.05;1.45;;;10.90;99.90;;;;;;4992836;28;20082;-83
2023/05/02 09:16:07;;;;;;;4.93;0.90;;;11.50;99.90;;;;;;4981792;28;20138;-82
2023/05/02 09:18:46;;;;;;;9.65;1.00;;;8.80;99.90;;;;;;4965116;28;20050;-82
2023/05/02 09:21:24;;;;;;;6.70;1.08;;;10.50;99.90;;;;;;4969922;28;20105;-82
2023/05/02 09:23:59;;;;;;;3.45;0.98;;;8.80;99.90;;;;;;4962748;28;20094;-82
2023/05/02 09:26:54;;;;;;;4.38;0.75;;;8.80;99.90;;;;;;4959543;28;20126;-82
2023/05/02 09:29:21;;;;;;;3.70;0.82;;;9.90;99.90;;;;;;4949525;28;20510;-81
2023/05/02 09:31:46;;;;;;;5.55;1.02;;;9.10;99.90;;;;;;4970564;28;20050;-82
2023/05/02 09:34:16;;;;;;;3.50;0.28;;;11.00;99.90;;;;;;4961371;28;20057;-81
2023/05/02 09:36:45;;;;;;;1.77;0.52;;;11.20;99.90;;;;;;4977117;28;20047;-83
2023/05/02 09:39:22;;;;;;;6.35;0.50;;;11.30;99.90;;;;;;4956486;28;20102;-83
2023/05/02 09:41:48;;;;;;;2.38;0.40;;;11.30;99.90;;;;;;4957881;28;20451;-82
2023/05/02 09:44:19;;;;;;;3.13;0.75;;;10.80;99.90;;;;;;4975018;28;20085;-82
2023/05/02 09:46:50;;;;;;;8.95;1.50;;;11.30;99.90;;;;;;4979082;28;20092;-82
2023/05/02 09:49:19;;;;;;;12.27;1.27;;;9.20;99.90;;;;;;4984382;28;20064;-82
2023/05/02 09:51:46;;;;;;;7.22;0.70;;;10.10;99.90;;;;;;4997307;28;20042;-82
2023/05/02 09:54:13;;;;;;;3.88;0.60;;;11.90;99.90;;;;;;4997266;28;20065;-82
2023/05/02 09:56:57;;;;;;;1.58;0.38;;;11.10;99.90;;;;;;4976352;28;20561;-82
2023/05/02 09:59:24;;;;;;;1.33;0.35;;;9.40;99.90;;;;;;4953529;28;20062;-81
2023/05/02 10:01:58;;;;;;;3.05;0.65;;;9.40;99.90;;;;;;4973252;28;20050;-82
2023/05/02 10:04:25;;;;;;;3.65;0.57;;;10.30;99.90;;;;;;4979230;28;20156;-81
2023/05/02 10:06:52;;;;;;;2.17;0.60;;;10.20;99.90;;;;;;4972316;28;20053;-82
2023/05/02 10:09:21;;;;;;;6.30;0.88;;;9.70;99.90;;;;;;4958466;28;20393;-82
2023/05/02 10:11:52;;;;;;;4.78;0.90;;;9.80;99.90;;;;;;4981230;28;20502;-82
2023/05/02 10:14:21;;;;;;;7.22;1.50;;;11.80;99.90;;;;;;4967653;28;21325;-82
2023/05/02 10:17:11;;;;;;;8.82;0.88;;;11.50;99.90;;;;;;4973185;28;20264;-83
2023/05/02 10:19:40;;;;;;;17.55;2.25;;;9.50;99.90;;;;;;4966596;28;20085;-84
2023/05/02 10:22:07;;;;;;;5.38;1.13;;;10.60;99.90;;;;;;4981948;28;20047;-84
2023/05/02 10:24:33;;;;;;;5.90;1.45;;;11.30;99.90;;;;;;4976062;28;20512;-83
2023/05/02 10:27:00;;;;;;;6.53;1.02;;;9.40;99.90;;;;;;4979694;28;20398;-83
2023/05/02 10:29:31;;;;;;;1.35;0.60;;;10.60;99.90;;;;;;4984209;28;20425;-84
2023/05/02 10:31:59;;;;;;;1.95;0.80;;;9.50;99.90;;;;;;4982236;28;20050;-82
2023/05/02 10:34:26;;;;;;;5.53;0.85;;;12.00;99.90;;;;;;4967441;28;20061;-83
2023/05/02 10:36:53;;;;;;;1.70;0.70;;;11.40;99.90;;;;;;4976748;28;20057;-82
2023/05/02 10:39:23;;;;;;;1.35;0.82;;;10.60;99.90;;;;;;4976942;28;20090;-82
2023/05/02 10:41:52;;;;;;;2.83;0.88;;;11.60;99.90;;;;;;4973175;28;20059;-82
2023/05/02 10:44:37;;;;;;;2.88;0.63;;;12.30;99.90;;;;;;4978760;28;20054;-81
2023/05/02 10:47:23;;;;;;;3.78;1.10;;;10.10;99.90;;;;;;4979291;28;20039;-82
2023/05/02 10:50:00;;;;;;;2.10;0.43;;;12.20;99.90;;;;;;4977419;28;20116;-82
2023/05/02 10:52:29;;;;;;;4.32;0.47;;;9.90;99.90;;;;;;4976182;28;20046;-82
2023/05/02 10:55:18;;;;;;;3.63;0.82;;;9.80;99.90;;;;;;4952235;28;20043;-84
2023/05/02 10:57:57;;;;;;;4.22;1.10;;;9.90;99.90;;;;;;4975049;28;20502;-87
2023/05/02 11:00:31;;;;;;;6.85;1.25;;;10.00;99.90;;;;;;4967526;28;20046;-87
2023/05/02 11:02:57;;;;;;;5.50;0.85;;;10.10;99.90;;;;;;4967492;28;20059;-86
2023/05/02 11:05:23;;;;;;;5.82;1.13;;;10.10;99.90;;;;;;4982906;28;20449;-86
2023/05/02 11:07:49;;;;;;;6.60;0.90;;;9.40;99.90;;;;;;4982200;28;20577;-86
2023/05/02 11:10:21;;;;;;;5.32;1.67;;;10.20;99.90;;;;;;4971478;28;20141;-85
2023/05/02 11:12:49;;;;;;;4.88;1.30;;;11.70;99.90;;;;;;4979030;28;20531;-85
2023/05/02 11:15:41;;;;;;;5.25;1.15;;;9.90;99.90;;;;;;4982030;28;20097;-86
2023/05/02 11:18:13;;;;;;;5.55;0.88;;;10.00;99.90;;;;;;4981547;28;20611;-84
2023/05/02 11:20:43;;;;;;;5.90;1.00;;;12.40;99.90;;;;;;4963696;28;20055;-85
2023/05/02 11:23:20;;;;;;;16.17;1.98;;;11.90;99.90;;;;;;4957243;28;20058;-84
2023/05/02 11:25:54;;;;;;;5.53;1.20;;;11.90;99.90;;;;;;4960606;28;20516;-85
2023/05/02 11:28:35;;;;;;;5.50;1.15;;;10.10;99.90;;;;;;4966554;28;20055;-86
2023/05/02 11:31:01;;;;;;;5.18;0.70;;;11.00;99.90;;;;;;4976390;28;20058;-84
2023/05/02 11:33:28;;;;;;;2.25;0.38;;;12.10;99.90;;;;;;4981194;28;20050;-85
2023/05/02 11:35:56;;;;;;;4.72;0.60;;;9.20;99.90;;;;;;4960238;28;20073;-84
2023/05/02 11:38:22;;;;;;;3.63;0.57;;;10.60;99.90;;;;;;4972988;28;20042;-84
2023/05/02 11:40:57;;;;;;;5.28;0.50;;;10.30;99.90;;;;;;4977473;28;20053;-85
2023/05/02 11:43:25;;;;;;;2.58;0.40;;;11.00;99.90;;;;;;4971885;28;20056;-84
2023/05/02 11:45:52;;;;;;;2.05;0.40;;;12.40;99.90;;;;;;4968769;28;20046;-85
2023/05/02 11:48:19;;;;;;;2.05;0.50;;;11.00;99.90;;;;;;4969153;28;20086;-85
2023/05/02 11:50:54;;;;;;;4.97;0.80;;;13.70;99.90;;;;;;4966286;28;20536;-85
2023/05/02 11:53:23;;;;;;;1.35;0.40;;;11.60;99.90;;;;;;4982976;28;20062;-83
2023/05/02 11:55:51;;;;;;;1.63;0.38;;;13.80;99.90;;;;;;4971969;28;20056;-84
2023/05/02 11:58:19;;;;;;;2.15;0.30;;;11.80;99.90;;;;;;4965221;28;20490;-85
2023/05/02 12:00:46;;;;;;;5.05;0.40;;;11.90;99.90;;;;;;4971914;28;20098;-84
2023/05/02 12:03:40;;;;;;;3.92;0.60;;;13.50;99.90;;;;;;4961597;28;20078;-84
2023/05/02 12:06:14;;;;;;;5.50;0.90;;;14.10;99.90;;;;;;4970542;28;20054;-84
2023/05/02 12:08:41;;;;;;;5.30;0.57;;;12.30;99.90;;;;;;4972398;28;20054;-83
2023/05/02 12:11:08;;;;;;;2.20;0.70;;;13.80;99.90;;;;;;4980649;28;20046;-85
2023/05/02 12:13:34;;;;;;;9.23;1.20;;;13.60;99.90;;;;;;4963869;28;20047;-85
2023/05/02 12:16:00;;;;;;;11.90;1.52;;;12.00;99.90;;;;;;4958693;28;20054;-86
2023/05/02 12:18:26;;;;;;;8.98;1.17;;;12.60;99.90;;;;;;4965171;28;20451;-85
2023/05/02 12:20:55;;;;;;;2.83;0.47;;;11.90;99.90;;;;;;4979580;28;20101;-84
2023/05/02 12:23:25;;;;;;;0.75;0.22;;;11.90;99.90;;;;;;4977793;28;20054;-82
2023/05/02 12:25:51;;;;;;;0.63;0.20;;;11.80;99.90;;;;;;4971818;28;20042;-85
2023/05/02 12:28:22;;;;;;;1.98;0.20;;;11.60;99.90;;;;;;4980022;28;20055;-84
2023/05/02 12:30:50;;;;;;;2.92;0.20;;;11.30;99.90;;;;;;4978497;28;20470;-84
2023/05/02 12:33:16;;;;;;;1.55;0.20;;;13.20;99.90;;;;;;4958085;28;20066;-84
2023/05/02 12:35:44;;;;;;;5.93;0.60;;;10.90;99.90;;;;;;4980877;28;20054;-85
2023/05/02 12:38:12;;;;;;;2.00;0.40;;;13.00;99.90;;;;;;4981163;28;20062;-85
2023/05/02 12:40:39;;;;;;;3.10;0.43;;;;;;;;;;4962318;28;20395;-85
2023/05/02 12:43:07;;;;;;;2.95;0.30;;;11.50;99.90;;;;;;4960454;28;20105;-84
2023/05/02 12:45:33;;;;;;;2.08;0.40;;;12.80;99.90;;;;;;4958287;28;20133;-83
2023/05/02 12:48:24;;;;;;;1.55;0.28;;;13.00;99.90;;;;;;4965499;28;20451;-84
2023/05/02 12:50:51;;;;;;;3.72;0.57;;;11.70;99.90;;;;;;4950858;28;20070;-83
2023/05/02 12:53:36;;;;;;;3.33;0.40;;;12.90;99.90;;;;;;4962289;28;20050;-83
2023/05/02 12:56:02;;;;;;;2.63;0.20;;;11.40;99.90;;;;;;4976506;28;20050;-82
2023/05/02 12:58:29;;;;;;;1.17;0.10;;;;;;;;;;4958690;28;20058;-83